createdAt,value
2022-11-30T00:00:31.853Z,-0.93
2022-11-30T00:05:53.288Z,-0.95
2022-11-30T00:10:56.580Z,-0.98
2022-11-30T00:16:03.796Z,-1.01
2022-11-30T00:21:11.500Z,-1.03
2022-11-30T00:26:18.411Z,-1.06
2022-11-30T00:31:22.000Z,-1.09
2022-11-30T00:36:25.416Z,-1.10
2022-11-30T00:41:28.807Z,-1.11
2022-11-30T00:46:32.238Z,-1.11
2022-11-30T00:51:35.516Z,-1.14
2022-11-30T00:56:38.911Z,-1.14
2022-11-30T01:01:42.191Z,-1.16
2022-11-30T01:06:45.587Z,-1.18
2022-11-30T01:11:49.013Z,-1.20
2022-11-30T01:16:56.211Z,-1.23
2022-11-30T01:22:00.222Z,-1.27
2022-11-30T01:27:03.665Z,-1.29
2022-11-30T01:32:07.180Z,-1.29
2022-11-30T01:37:10.397Z,-1.29
2022-11-30T01:42:16.357Z,-1.28
2022-11-30T01:47:23.089Z,-1.27
2022-11-30T01:52:34.907Z,-1.20
2022-11-30T01:58:04.677Z,-1.12
2022-11-30T02:03:17.903Z,-1.06
2022-11-30T02:08:21.674Z,-1.02
2022-11-30T02:13:31.505Z,-1.00
2022-11-30T02:18:48.494Z,-0.98
2022-11-30T02:24:13.164Z,-0.95
2022-11-30T02:29:28.022Z,-0.92
2022-11-30T02:34:32.594Z,-0.91
2022-11-30T02:39:36.242Z,-0.92
2022-11-30T02:44:41.671Z,-0.93
2022-11-30T02:49:59.755Z,-0.93
2022-11-30T02:55:06.619Z,-0.96
2022-11-30T03:00:11.790Z,-0.99
2022-11-30T03:05:15.132Z,-1.05
2022-11-30T03:10:18.528Z,-1.07
2022-11-30T03:15:21.827Z,-1.04
2022-11-30T03:20:25.818Z,-1.04
2022-11-30T03:25:30.231Z,-1.04
2022-11-30T03:30:34.068Z,-1.04
2022-11-30T03:35:37.949Z,-1.04
2022-11-30T03:40:41.259Z,-1.08
2022-11-30T03:45:45.995Z,-1.12
2022-11-30T03:50:50.462Z,-1.15
2022-11-30T03:55:59.387Z,-1.15
2022-11-30T04:01:14.614Z,-1.14
2022-11-30T04:06:18.101Z,-1.13
2022-11-30T04:11:21.241Z,-1.11
2022-11-30T04:16:24.593Z,-1.10
2022-11-30T04:21:27.946Z,-1.09
2022-11-30T04:26:31.294Z,-1.06
2022-11-30T04:31:34.777Z,-1.07
2022-11-30T04:36:38.036Z,-1.07
2022-11-30T04:41:41.545Z,-1.10
2022-11-30T04:46:44.919Z,-1.09
2022-11-30T04:51:48.167Z,-1.08
2022-11-30T04:56:56.257Z,-1.08
2022-11-30T05:02:12.580Z,-1.08
2022-11-30T05:07:20.779Z,-1.06
2022-11-30T05:12:24.868Z,-1.07
2022-11-30T05:17:28.281Z,-1.07
2022-11-30T05:22:31.582Z,-1.08
2022-11-30T05:27:35.565Z,-1.07
2022-11-30T05:32:38.981Z,-1.07
2022-11-30T05:37:42.257Z,-1.08
2022-11-30T05:42:45.614Z,-1.10
2022-11-30T05:47:48.987Z,-1.11
2022-11-30T05:53:01.076Z,-1.12
2022-11-30T05:58:04.535Z,-1.14
2022-11-30T06:03:08.046Z,-1.10
2022-11-30T06:08:11.653Z,-1.07
2022-11-30T06:13:15.192Z,-1.05
2022-11-30T06:18:18.656Z,-1.05
2022-11-30T06:23:22.096Z,-1.07
2022-11-30T06:28:25.425Z,-1.06
2022-11-30T06:33:28.978Z,-1.04
2022-11-30T06:38:32.274Z,-1.00
2022-11-30T06:43:37.182Z,-0.95
2022-11-30T06:48:40.967Z,-0.91
2022-11-30T06:53:45.207Z,-0.86
2022-11-30T06:58:48.791Z,-0.81
2022-11-30T07:03:51.976Z,-0.76
2022-11-30T07:08:56.192Z,-0.75
2022-11-30T07:13:59.556Z,-0.74
2022-11-30T07:19:02.918Z,-0.70
2022-11-30T07:24:24.838Z,-0.66
2022-11-30T07:29:28.264Z,-0.63
2022-11-30T07:34:31.804Z,-0.62
2022-11-30T07:39:35.158Z,-0.60
2022-11-30T07:44:38.618Z,-0.57
2022-11-30T07:49:41.860Z,-0.56
2022-11-30T07:54:45.378Z,-0.50
2022-11-30T07:59:49.417Z,-0.47
2022-11-30T08:04:53.646Z,-0.45
2022-11-30T08:09:58.600Z,-0.47
2022-11-30T08:20:26.340Z,-0.44
2022-11-30T08:25:29.595Z,-0.40
2022-11-30T08:30:33.077Z,-0.35
2022-11-30T08:35:36.676Z,-0.31
2022-11-30T08:40:40.042Z,-0.27
2022-11-30T08:45:43.425Z,-0.24
2022-11-30T08:50:46.807Z,-0.21
2022-11-30T08:56:00.754Z,-0.21
2022-11-30T09:01:50.824Z,-0.18
2022-11-30T09:07:00.082Z,-0.14
2022-11-30T09:12:07.622Z,-0.14
2022-11-30T09:17:11.519Z,-0.11
2022-11-30T09:22:17.045Z,-0.09
2022-11-30T09:27:22.699Z,-0.01
2022-11-30T09:32:26.537Z,0.08
2022-11-30T09:37:29.726Z,0.13
2022-11-30T09:42:44.983Z,0.13
2022-11-30T09:47:59.270Z,0.16
2022-11-30T09:53:12.638Z,0.13
2022-11-30T09:58:39.855Z,0.15
2022-11-30T10:03:43.531Z,0.16
2022-11-30T10:09:07.594Z,0.17
2022-11-30T10:14:26.983Z,0.19
2022-11-30T10:19:45.842Z,0.22
2022-11-30T10:24:57.603Z,0.25
2022-11-30T10:30:01.871Z,0.32
2022-11-30T10:35:33.968Z,0.33
2022-11-30T10:40:51.879Z,0.31
2022-11-30T10:45:55.279Z,0.33
2022-11-30T10:50:59.278Z,0.33
2022-11-30T10:56:14.418Z,0.33
2022-11-30T11:01:37.337Z,0.31
2022-11-30T11:06:50.501Z,0.32
2022-11-30T11:11:55.411Z,0.35
2022-11-30T11:17:18.424Z,0.32
2022-11-30T11:22:24.962Z,0.31
2022-11-30T11:27:31.902Z,0.21
2022-11-30T11:32:36.198Z,0.18
2022-11-30T11:37:41.891Z,0.18
2022-11-30T11:42:48.234Z,0.24
2022-11-30T11:48:04.603Z,0.28
2022-11-30T11:53:15.730Z,0.35
2022-11-30T11:58:25.566Z,0.47
2022-11-30T12:03:48.389Z,0.49
2022-11-30T12:09:19.048Z,0.55
2022-11-30T12:14:22.427Z,0.58
2022-11-30T12:19:52.796Z,0.53
2022-11-30T12:25:06.246Z,0.47
2022-11-30T12:30:25.412Z,0.45
2022-11-30T12:35:46.845Z,0.41
2022-11-30T12:41:16.119Z,0.45
2022-11-30T12:46:56.993Z,0.45
2022-11-30T12:52:41.425Z,0.43
2022-11-30T12:58:00.110Z,0.43
2022-11-30T13:03:24.855Z,0.39
2022-11-30T13:09:04.882Z,0.36
2022-11-30T13:14:15.734Z,0.34
2022-11-30T13:19:44.278Z,0.33
2022-11-30T13:24:59.663Z,0.34
2022-11-30T13:30:33.082Z,0.30
2022-11-30T13:35:53.093Z,0.25
2022-11-30T13:41:04.650Z,0.23
2022-11-30T13:46:15.567Z,0.20
2022-11-30T13:51:38.133Z,0.17
2022-11-30T13:56:49.822Z,0.14
2022-11-30T14:02:32.217Z,0.07
2022-11-30T14:07:47.341Z,0.02
2022-11-30T14:13:26.242Z,0.03
2022-11-30T14:18:48.171Z,0.06
2022-11-30T14:24:06.120Z,0.03
2022-11-30T14:29:14.186Z,-0.03
2022-11-30T14:34:39.125Z,-0.06
2022-11-30T14:39:52.377Z,-0.06
2022-11-30T14:45:07.812Z,-0.10
2022-11-30T14:50:23.488Z,-0.11
2022-11-30T14:55:41.014Z,-0.11
2022-11-30T15:00:45.787Z,-0.10
2022-11-30T15:05:56.995Z,-0.10
2022-11-30T15:11:05.967Z,-0.11
2022-11-30T15:16:22.134Z,-0.12
2022-11-30T15:21:29.811Z,-0.12
2022-11-30T15:27:07.110Z,-0.12
2022-11-30T15:32:27.121Z,-0.14
2022-11-30T15:37:40.181Z,-0.12
2022-11-30T15:42:49.834Z,-0.11
2022-11-30T15:47:57.121Z,-0.10
2022-11-30T15:53:06.134Z,-0.10
2022-11-30T16:04:16.307Z,-0.08
2022-11-30T16:09:36.605Z,-0.04
2022-11-30T16:14:44.162Z,-0.01
2022-11-30T16:19:57.267Z,0.03
2022-11-30T16:25:05.853Z,0.04
2022-11-30T16:30:24.681Z,0.06
2022-11-30T16:36:05.472Z,0.07
2022-11-30T16:41:28.545Z,0.10
2022-11-30T16:46:32.898Z,0.11
2022-11-30T16:51:51.599Z,0.13
2022-11-30T16:57:00.069Z,0.15
2022-11-30T17:02:19.403Z,0.16
2022-11-30T17:07:55.777Z,0.18
2022-11-30T17:13:05.214Z,0.20
2022-11-30T17:18:18.864Z,0.23
2022-11-30T17:23:28.665Z,0.25
2022-11-30T17:28:33.256Z,0.27
2022-11-30T17:33:51.404Z,0.30
2022-11-30T17:38:59.697Z,0.31
2022-11-30T17:44:08.292Z,0.32
2022-11-30T17:49:14.135Z,0.34
2022-11-30T17:54:26.406Z,0.34
2022-11-30T17:59:36.657Z,0.32
2022-11-30T18:04:54.207Z,0.30
2022-11-30T18:10:02.135Z,0.28
2022-11-30T18:15:06.541Z,0.28
2022-11-30T18:20:14.531Z,0.24
2022-11-30T18:25:18.964Z,0.21
2022-11-30T18:30:22.396Z,0.20
2022-11-30T18:35:26.002Z,0.20
2022-11-30T18:40:29.683Z,0.20
2022-11-30T18:45:36.803Z,0.21
2022-11-30T18:50:48.544Z,0.20
2022-11-30T18:55:56.462Z,0.19
2022-11-30T19:01:24.194Z,0.18
2022-11-30T19:06:30.199Z,0.15
2022-11-30T19:11:34.185Z,0.13
2022-11-30T19:16:49.653Z,0.13
2022-11-30T19:22:14.000Z,0.12
2022-11-30T19:28:04.589Z,0.13
2022-11-30T19:33:10.083Z,0.15
2022-11-30T19:38:19.790Z,0.16
2022-11-30T19:43:39.140Z,0.15
2022-11-30T19:49:04.351Z,0.14
2022-11-30T19:54:08.026Z,0.13
2022-11-30T19:59:13.245Z,0.10
2022-11-30T20:04:16.812Z,0.08
2022-11-30T20:09:22.314Z,0.05
2022-11-30T20:14:25.735Z,0.02
2022-11-30T20:19:32.747Z,-0.00
2022-11-30T20:24:37.091Z,-0.04
2022-11-30T20:29:41.346Z,-0.08
2022-11-30T20:34:45.203Z,-0.10
2022-11-30T20:39:49.065Z,-0.09
2022-11-30T20:44:58.416Z,-0.07
2022-11-30T20:50:23.813Z,-0.08
2022-11-30T20:55:50.501Z,-0.08
2022-11-30T21:01:23.952Z,-0.06
2022-11-30T21:06:31.497Z,-0.07
2022-11-30T21:18:14.347Z,-0.10
2022-11-30T21:23:50.767Z,-0.08
2022-11-30T21:29:35.876Z,-0.10
2022-11-30T21:35:28.710Z,-0.17
2022-11-30T21:40:37.004Z,-0.18
2022-11-30T21:46:18.408Z,-0.19
2022-11-30T21:51:31.226Z,-0.19
2022-11-30T21:57:04.393Z,-0.16
2022-11-30T22:02:40.840Z,-0.16
2022-11-30T22:08:00.689Z,-0.15
2022-11-30T22:13:50.843Z,-0.17
2022-11-30T22:19:13.630Z,-0.19
2022-11-30T22:24:36.315Z,-0.19
2022-11-30T22:29:56.448Z,-0.16
2022-11-30T22:35:17.751Z,-0.13
2022-11-30T22:40:55.001Z,-0.12
2022-11-30T22:46:38.665Z,-0.12
2022-11-30T22:52:03.511Z,-0.12
2022-11-30T22:57:37.008Z,-0.10
2022-11-30T23:02:52.030Z,-0.13
2022-11-30T23:08:04.291Z,-0.13
2022-11-30T23:13:15.564Z,-0.12
2022-11-30T23:18:21.591Z,-0.16
2022-11-30T23:23:25.715Z,-0.19
2022-11-30T23:28:29.087Z,-0.21
2022-11-30T23:33:33.320Z,-0.21
2022-11-30T23:38:43.707Z,-0.19
2022-11-30T23:43:48.038Z,-0.21
2022-11-30T23:48:56.431Z,-0.22
2022-11-30T23:54:06.952Z,-0.27
2022-11-30T23:59:17.561Z,-0.29
